메인 페이지
METAR-TAF:

METAR-TAF

공항 :

Yeovilton, 잉글랜드

위도: 51-00N, 경도: 002-38W, 고도: 23m

현재 날씨관측

예보는 46분 전, 02:50시(UTC)에 발표되었습니다.
남동2kt
온도 12°C
습도 94%
기압 1015 hPa
시정 10km 이상

METAR: EGDY 130250Z AUTO 14002KT 9999 BKN100/// 12/11 Q1015

시각: 04:36 (03:36 UTC)

예보

예보는 19 시간 52분 전, 07:44시(UTC)에 발표되었습니다.
예보 대상 시간: 12일 09시부터 12일 18시까지 (UTC)
북동10kt
시정 10km 이상
고도 2500ft 상공 구름 보통
일시적
12일 09시부터 12일 18시까지 (UTC)
시정: 7000m
약한소나기
확률 30% :
일시적
12일 09시부터 12일 18시까지 (UTC)
시정: 4000m
고도 1500ft 상공 구름 많음, 타워링 적운.
소나기,

TAF: EGDY 120744Z 1209/1218 04010KT 9999 SCT025 TEMPO 1209/1218 7000 -SHRA PROB30 TEMPO 1209/1218 4000 SHRA BKN015TCU

4,000개 이상의 공항 관측 자료 및 예보 (METAR 및 TAF 보고).

지도상에서 검색 가능한 기상관측소가 노란 점과 빨간 점으로 표시되어 있습니다.

기상관측소 명을 보려면 표시 위로 마우스를 이동하세요.

날씨 관측과 예보를 보려면 클릭하세요.

지도 변경 : 확대하려면 엑스 표시가 있는 녹색 버튼, 축소하려면 빼기 표시가 있는 녹색 버튼, 다음 페이지의 지도를 보려면 녹색 화살표를 클릭하세요.


METAR-TAF: